Time;durP1;ratioP1;P1;durP2;ratioP2;P2;SDS_P1;SDS_P2;PMS_P1;PMS_P2;Temp;Humidity;BMP_temperature;BMP_pressure;BME280_temperature;BME280_humidity;BME280_pressure;Samples;Min_cycle;Max_cycle;Signal;HPM_P1;HPM_P2
2023/05/05 00:02:11;;;;;;;8.60;4.00;;;;;;;11.26;42.15;100835.53;4228383;28;20656;-69
2023/05/05 00:04:37;;;;;;;12.60;3.83;;;;;;;11.19;42.32;100832.53;4229963;28;20241;-68
2023/05/05 00:07:04;;;;;;;11.33;4.47;;;;;;;11.18;42.59;100838.94;4219155;28;21175;-68
2023/05/05 00:09:30;;;;;;;8.00;3.90;;;;;;;11.21;42.70;100838.66;4230937;28;20231;-68
2023/05/05 00:11:57;;;;;;;11.63;4.20;;;;;;;11.14;42.56;100836.69;4231131;28;21260;-70
2023/05/05 00:14:23;;;;;;;9.93;4.00;;;;;;;11.14;42.60;100847.53;4227598;28;20299;-68
2023/05/05 00:16:50;;;;;;;10.50;4.20;;;;;;;11.12;42.86;100841.38;4228003;28;20891;-68
2023/05/05 00:19:16;;;;;;;6.97;3.87;;;;;;;11.13;42.85;100835.81;4235958;28;21797;-68
2023/05/05 00:21:43;;;;;;;12.57;4.43;;;;;;;11.06;43.38;100835.53;4214326;28;20712;-69
2023/05/05 00:24:09;;;;;;;9.70;4.73;;;;;;;11.07;43.52;100836.38;4235639;28;22311;-67
2023/05/05 00:26:36;;;;;;;10.67;4.60;;;;;;;11.06;43.72;100832.81;4220631;28;20311;-69
2023/05/05 00:29:02;;;;;;;10.33;4.03;;;;;;;10.91;44.27;100829.66;4224428;28;21948;-67
2023/05/05 00:31:29;;;;;;;11.03;4.10;;;;;;;10.94;44.16;100832.09;4220611;28;20294;-68
2023/05/05 00:33:55;;;;;;;9.33;4.00;;;;;;;10.96;44.44;100821.09;4227559;28;20251;-72
2023/05/05 00:36:22;;;;;;;10.33;4.07;;;;;;;11.06;44.86;100840.94;4223871;28;21805;-68
2023/05/05 00:38:48;;;;;;;7.23;4.33;;;;;;;10.80;45.59;100835.16;4230727;28;21231;-68
2023/05/05 00:41:15;;;;;;;12.90;4.70;;;;;;;10.89;45.36;100831.63;4228061;28;23435;-67
2023/05/05 00:43:42;;;;;;;10.30;4.63;;;;;;;10.77;45.89;100832.75;4207022;28;22756;-68
2023/05/05 00:46:23;;;;;;;9.33;4.57;;;;;;;10.74;46.05;100820.38;4222462;28;20320;-67
2023/05/05 00:48:50;;;;;;;9.73;4.80;;;;;;;10.89;45.89;100834.34;4230699;28;20331;-67
2023/05/05 00:51:17;;;;;;;12.10;4.57;;;;;;;10.81;46.02;100833.34;4219632;28;22153;-68
2023/05/05 00:53:44;;;;;;;11.43;4.73;;;;;;;10.84;45.75;100833.91;4220982;28;20355;-69
2023/05/05 00:56:14;;;;;;;10.10;4.80;;;;;;;10.96;45.51;100836.50;4220717;28;20429;-67
2023/05/05 00:58:42;;;;;;;17.83;4.97;;;;;;;10.83;45.75;100831.34;4214815;28;21800;-67
2023/05/05 01:01:10;;;;;;;15.23;5.30;;;;;;;10.90;45.57;100841.47;4221691;28;20252;-67
2023/05/05 01:03:38;;;;;;;11.30;5.07;;;;;;;10.87;45.95;100830.94;4215444;28;20233;-68
2023/05/05 01:06:14;;;;;;;10.23;4.60;;;;;;;10.96;45.56;100831.94;4235816;28;20250;-69
2023/05/05 01:08:52;;;;;;;9.77;4.80;;;;;;;10.86;45.92;100831.06;4223881;28;20236;-68
2023/05/05 01:11:26;;;;;;;10.77;4.90;;;;;;;10.85;45.90;100826.63;4238178;28;20312;-67
2023/05/05 01:14:13;;;;;;;14.33;5.07;;;;;;;10.86;46.05;100825.66;4217056;28;20249;-67
2023/05/05 01:16:48;;;;;;;14.53;4.80;;;;;;;10.72;46.17;100824.22;4219993;28;20234;-66
2023/05/05 01:19:48;;;;;;;11.77;5.23;;;;;;;10.78;46.45;100826.34;4226120;28;22340;-67
2023/05/05 01:22:17;;;;;;;10.20;4.63;;;;;;;10.62;47.40;100825.03;4229495;28;20246;-67
2023/05/05 01:25:18;;;;;;;14.30;5.10;;;;;;;10.75;46.86;100819.38;4224787;28;21955;-67
2023/05/05 01:28:16;;;;;;;11.27;5.27;;;;;;;10.74;47.60;100827.63;4234862;28;22767;-68
2023/05/05 01:31:04;;;;;;;13.07;5.67;;;;;;;10.80;46.75;100820.78;4230040;28;20235;-69
2023/05/05 01:33:35;;;;;;;10.10;4.90;;;;;;;10.78;46.71;100826.34;4218785;28;20238;-67
2023/05/05 01:36:07;;;;;;;14.50;5.07;;;;;;;10.79;46.68;100822.66;4214981;28;20236;-67
2023/05/05 01:38:41;;;;;;;12.53;5.37;;;;;;;10.60;47.44;100821.59;4215415;28;20310;-69
2023/05/05 01:41:16;;;;;;;12.67;5.33;;;;;;;10.50;49.55;100814.44;4217107;28;20260;-67
2023/05/05 01:43:46;;;;;;;15.77;5.30;;;;;;;10.52;48.64;100807.06;4208971;28;20243;-67
2023/05/05 01:46:14;;;;;;;9.13;5.40;;;;;;;10.59;48.17;100808.22;4213389;28;20250;-68
2023/05/05 01:48:42;;;;;;;9.87;4.97;;;;;;;10.62;47.87;100814.22;4220157;28;20417;-67
2023/05/05 01:51:09;;;;;;;12.43;5.33;;;;;;;10.43;48.59;100816.84;4238429;28;20345;-68
2023/05/05 01:53:35;;;;;;;11.13;5.10;;;;;;;10.62;47.42;100808.78;4216617;28;23456;-67
2023/05/05 01:56:02;;;;;;;12.60;5.47;;;;;;;10.52;49.38;100802.47;4213309;28;25719;-67
2023/05/05 01:58:31;;;;;;;11.03;5.17;;;;;;;10.58;48.36;100804.63;4215691;28;21318;-69
2023/05/05 02:00:58;;;;;;;12.43;5.23;;;;;;;10.39;49.43;100815.41;4199683;28;20238;-67
2023/05/05 02:03:25;;;;;;;8.77;4.67;;;;;;;10.56;47.37;100809.34;4215554;28;20231;-67
2023/05/05 02:05:53;;;;;;;9.90;4.67;;;;;;;10.53;47.48;100806.91;4227285;28;20231;-68
2023/05/05 02:08:20;;;;;;;11.30;4.67;;;;;;;10.69;46.21;100809.06;4223124;28;21759;-68
2023/05/05 02:10:47;;;;;;;15.27;4.67;;;;;;;10.79;46.10;100806.41;4220219;28;21031;-66
2023/05/05 02:13:14;;;;;;;7.13;4.13;;;;;;;10.84;45.56;100803.28;4220595;28;20235;-67
2023/05/05 02:15:42;;;;;;;8.03;3.93;;;;;;;10.76;45.02;100799.41;4220990;28;20227;-67
2023/05/05 02:18:08;;;;;;;7.70;3.60;;;;;;;10.78;45.29;100797.41;4226189;28;21631;-67
2023/05/05 02:20:37;;;;;;;10.90;4.27;;;;;;;10.84;44.84;100790.59;4219022;28;20339;-68
2023/05/05 02:23:06;;;;;;;12.20;4.27;;;;;;;10.97;44.21;100789.44;4243354;28;20239;-67
2023/05/05 02:25:41;;;;;;;7.67;4.07;;;;;;;10.88;44.56;100799.28;4230139;28;20234;-67
2023/05/05 02:28:16;;;;;;;8.37;3.93;;;;;;;10.91;44.51;100804.44;4232911;28;22473;-68
2023/05/05 02:30:42;;;;;;;9.63;3.70;;;;;;;11.02;44.40;100788.03;4208312;28;20518;-67
2023/05/05 02:33:10;;;;;;;9.40;4.00;;;;;;;10.98;44.31;100785.75;4228097;28;20254;-68
2023/05/05 02:35:39;;;;;;;7.83;4.00;;;;;;;10.91;44.38;100785.47;4217333;28;20247;-67
2023/05/05 02:38:10;;;;;;;10.77;4.50;;;;;;;10.83;44.49;100786.16;4244144;28;20863;-67
2023/05/05 02:40:39;;;;;;;10.63;4.77;;;;;;;11.01;44.35;100789.03;4220536;28;20251;-67
2023/05/05 02:43:09;;;;;;;8.43;4.00;;;;;;;11.08;44.33;100790.16;4229628;28;20366;-69
2023/05/05 02:45:36;;;;;;;9.67;4.47;;;;;;;11.07;44.34;100779.47;4224182;28;20219;-68
2023/05/05 02:48:03;;;;;;;8.30;3.93;;;;;;;11.09;44.10;100781.03;4218761;28;20428;-67
2023/05/05 02:50:32;;;;;;;9.70;4.37;;;;;;;11.07;44.41;100779.47;4238332;28;20274;-68
2023/05/05 02:52:59;;;;;;;11.40;4.43;;;;;;;11.10;44.42;100771.94;4219812;28;20930;-68
2023/05/05 02:55:38;;;;;;;13.37;4.77;;;;;;;11.05;44.51;100781.47;4206851;28;20239;-67
2023/05/05 02:58:16;;;;;;;12.57;4.20;;;;;;;10.87;45.08;100774.06;4212536;28;21837;-68
2023/05/05 03:00:58;;;;;;;11.03;3.93;;;;;;;10.98;44.84;100773.06;4243196;28;23697;-69
2023/05/05 03:03:35;;;;;;;12.93;4.00;;;;;;;11.05;44.58;100773.34;4235192;28;20247;-68
2023/05/05 03:06:11;;;;;;;9.40;4.47;;;;;;;11.06;44.59;100770.50;4232836;28;21796;-68
2023/05/05 03:08:51;;;;;;;13.13;4.50;;;;;;;11.10;44.61;100771.94;4218759;28;20285;-67
2023/05/05 03:11:37;;;;;;;10.60;4.50;;;;;;;11.18;44.11;100773.06;4228889;28;20251;-68
2023/05/05 03:14:11;;;;;;;9.10;4.47;;;;;;;11.15;44.22;100763.38;4211206;28;20374;-67
2023/05/05 03:16:39;;;;;;;10.53;4.30;;;;;;;11.06;44.51;100773.22;4224857;28;20280;-66
2023/05/05 03:19:09;;;;;;;7.37;4.37;;;;;;;11.02;44.79;100768.22;4216195;28;20279;-68
2023/05/05 03:21:36;;;;;;;9.63;4.13;;;;;;;11.01;44.56;100764.66;4207138;28;20235;-68
2023/05/05 03:24:16;;;;;;;14.67;4.90;;;;;;;11.14;44.37;100771.66;4232813;28;20501;-68
2023/05/05 03:26:44;;;;;;;9.43;4.30;;;;;;;11.07;44.98;100771.34;4234524;28;20239;-65
2023/05/05 03:29:14;;;;;;;10.67;4.50;;;;;;;11.16;44.69;100769.63;4234226;28;21132;-69
2023/05/05 03:31:41;;;;;;;23.13;4.60;;;;;;;11.19;44.54;100769.34;4234343;28;20258;-66
2023/05/05 03:34:08;;;;;;;11.60;4.70;;;;;;;11.31;44.09;100776.31;4235427;28;20296;-67
2023/05/05 03:36:35;;;;;;;15.33;4.67;;;;;;;11.19;44.28;100778.31;4242974;28;20319;-68
2023/05/05 03:39:01;;;;;;;10.10;4.60;;;;;;;11.33;44.12;100771.63;4243055;28;20231;-69
2023/05/05 03:41:28;;;;;;;9.00;4.70;;;;;;;11.23;44.21;100768.06;4246713;28;21064;-69
2023/05/05 03:43:54;;;;;;;9.20;4.47;;;;;;;11.33;43.79;100771.63;4227569;28;20631;-68
2023/05/05 03:46:21;;;;;;;12.57;4.93;;;;;;;11.39;43.63;100767.50;4232619;28;20243;-68
2023/05/05 03:48:47;;;;;;;7.73;4.13;;;;;;;11.38;43.66;100773.91;4230137;28;20227;-68
2023/05/05 03:51:14;;;;;;;11.23;4.33;;;;;;;11.43;43.41;100779.75;4214248;28;21785;-68
2023/05/05 03:53:41;;;;;;;20.60;7.57;;;;;;;11.52;43.49;100768.03;4237122;28;20231;-68
2023/05/05 03:56:07;;;;;;;13.77;4.20;;;;;;;11.62;42.98;100772.59;4235125;28;20325;-68
2023/05/05 03:58:34;;;;;;;7.37;3.90;;;;;;;11.68;42.87;100778.25;4231556;28;20253;-70
2023/05/05 04:01:00;;;;;;;9.57;4.13;;;;;;;11.64;43.07;100776.00;4225572;28;20242;-71
2023/05/05 04:03:27;;;;;;;8.47;4.30;;;;;;;11.58;43.30;100782.88;4228215;28;20309;-67
2023/05/05 04:05:54;;;;;;;13.93;4.90;;;;;;;11.48;43.71;100779.31;4232590;28;20941;-69
2023/05/05 04:08:20;;;;;;;9.57;4.53;;;;;;;11.66;43.29;100774.88;4204774;28;20294;-67
2023/05/05 04:10:47;;;;;;;10.50;5.03;;;;;;;11.73;43.47;100783.25;4210904;28;20234;-69
2023/05/05 04:13:13;;;;;;;9.77;4.70;;;;;;;12.01;42.80;100775.19;4225235;28;20235;-68
2023/05/05 04:15:46;;;;;;;8.17;4.03;;;;;;;11.98;42.64;100783.66;4218841;28;20228;-68
2023/05/05 04:18:13;;;;;;;10.90;4.90;;;;;;;12.00;42.86;100782.50;4223701;28;20239;-67
2023/05/05 04:20:39;;;;;;;13.27;4.83;;;;;;;11.93;42.91;100781.34;4219699;28;20232;-68
2023/05/05 04:23:06;;;;;;;13.30;4.70;;;;;;;11.97;43.60;100787.38;4217007;28;20312;-69
2023/05/05 04:25:32;;;;;;;13.03;4.20;;;;;;;12.14;43.10;100788.44;4224263;28;22142;-67
2023/05/05 04:27:59;;;;;;;13.83;4.80;;;;;;;12.10;43.29;100803.31;4234171;28;25537;-69
2023/05/05 04:30:26;;;;;;;11.73;4.70;;;;;;;12.05;44.26;100806.47;4207456;28;20255;-70
2023/05/05 04:32:52;;;;;;;10.73;4.20;;;;;;;11.83;44.82;100808.50;4226510;28;20240;-68
2023/05/05 04:35:19;;;;;;;10.20;4.30;;;;;;;11.91;44.54;100815.91;4222576;28;23547;-70
2023/05/05 04:37:46;;;;;;;14.57;4.60;;;;;;;11.98;43.91;100816.22;4212938;28;20240;-68
2023/05/05 04:40:12;;;;;;;7.03;3.90;;;;;;;11.95;44.40;100820.03;4220451;28;20380;-68
2023/05/05 04:42:39;;;;;;;10.93;4.27;;;;;;;11.87;44.52;100825.34;4222455;28;20274;-70
2023/05/05 04:45:06;;;;;;;9.87;4.20;;;;;;;11.40;46.79;100834.25;4243675;28;20239;-69
2023/05/05 04:47:36;;;;;;;18.03;6.20;;;;;;;11.24;47.75;100843.81;4218745;28;25220;-70
2023/05/05 04:50:04;;;;;;;15.50;5.77;;;;;;;11.06;48.53;100843.66;4223071;28;20227;-69
2023/05/05 04:52:30;;;;;;;13.33;6.27;;;;;;;10.98;49.11;100843.50;4219821;28;20252;-70
2023/05/05 04:54:57;;;;;;;15.80;6.60;;;;;;;10.88;49.78;100846.16;4225651;28;20239;-69
2023/05/05 04:57:24;;;;;;;23.00;7.03;;;;;;;10.90;49.58;100837.94;4220713;28;20232;-69
2023/05/05 04:59:50;;;;;;;18.20;6.73;;;;;;;10.68;50.31;100847.13;4213612;28;20313;-69
2023/05/05 05:02:17;;;;;;;19.00;7.13;;;;;;;10.75;50.33;100846.44;4224537;28;23387;-69
2023/05/05 05:04:43;;;;;;;26.10;8.23;;;;;;;10.80;50.00;100848.72;4230383;28;20238;-69
2023/05/05 05:07:10;;;;;;;14.70;6.47;;;;;;;10.70;50.59;100854.09;4228841;28;21229;-67
2023/05/05 05:09:36;;;;;;;18.00;6.90;;;;;;;10.74;50.38;100855.56;4223795;28;20401;-68
2023/05/05 05:12:04;;;;;;;17.53;6.60;;;;;;;10.55;50.37;100853.66;4215529;28;20342;-71
2023/05/05 05:14:38;;;;;;;17.10;6.80;;;;;;;10.56;50.39;100854.50;4235552;28;20373;-70
2023/05/05 05:17:07;;;;;;;18.37;6.90;;;;;;;10.54;49.58;100859.19;4222604;28;21209;-69
2023/05/05 05:19:34;;;;;;;15.50;6.17;;;;;;;10.54;49.54;100859.19;4231648;28;20226;-70
2023/05/05 05:22:01;;;;;;;16.30;6.67;;;;;;;10.66;49.69;100851.81;4233871;28;20227;-68
2023/05/05 05:24:27;;;;;;;21.57;6.90;;;;;;;10.63;49.64;100861.06;4229452;28;20440;-68
2023/05/05 05:26:54;;;;;;;18.83;7.00;;;;;;;10.63;50.38;100861.06;4220515;28;22975;-68
2023/05/05 05:29:20;;;;;;;18.80;5.97;;;;;;;10.89;48.82;100860.59;4232657;28;20232;-68
2023/05/05 05:31:47;;;;;;;16.83;6.63;;;;;;;11.12;48.20;100858.47;4222527;28;26219;-68
2023/05/05 05:34:13;;;;;;;19.57;6.40;;;;;;;11.15;48.03;100855.50;4229979;28;20235;-66
2023/05/05 05:36:40;;;;;;;13.63;6.53;;;;;;;11.29;47.96;100866.91;4230168;28;20305;-69
2023/05/05 05:39:07;;;;;;;18.17;6.60;;;;;;;11.47;47.52;100862.50;4228572;28;20259;-69
2023/05/05 05:41:33;;;;;;;19.17;6.80;;;;;;;11.57;47.49;100857.09;4216667;28;20350;-68
2023/05/05 05:44:00;;;;;;;18.73;6.77;;;;;;;11.89;46.08;100866.75;4206828;28;22228;-70
2023/05/05 05:46:26;;;;;;;17.10;6.13;;;;;;;12.26;45.35;100855.13;4232784;28;20250;-66
2023/05/05 05:48:53;;;;;;;17.43;7.20;;;;;;;12.46;44.75;100853.16;4232562;28;20248;-68
2023/05/05 05:51:20;;;;;;;17.60;6.30;;;;;;;12.77;43.49;100852.03;4234797;28;20347;-71
2023/05/05 05:53:46;;;;;;;19.60;6.57;;;;;;;13.04;42.76;100855.72;4224916;28;20401;-69
2023/05/05 05:56:13;;;;;;;11.90;6.00;;;;;;;14.08;40.86;100865.16;4228104;28;20295;-69
2023/05/05 05:58:39;;;;;;;12.40;5.37;;;;;;;15.00;38.86;100857.28;4236937;28;20307;-70
2023/05/05 06:01:06;;;;;;;18.57;5.50;;;;;;;15.32;38.67;100855.66;4212724;28;25827;-67
2023/05/05 06:03:32;;;;;;;13.73;5.67;;;;;;;16.60;35.88;100851.41;4232699;28;21192;-68
2023/05/05 06:06:00;;;;;;;12.00;5.83;;;;;;;17.23;34.05;100848.69;4229777;28;22699;-68
2023/05/05 06:08:27;;;;;;;11.37;5.27;;;;;;;17.38;33.31;100847.91;4237565;28;20300;-68
2023/05/05 06:10:53;;;;;;;14.07;5.80;;;;;;;17.36;33.14;100847.25;4233921;28;21213;-68
2023/05/05 06:13:20;;;;;;;10.23;5.10;;;;;;;17.81;32.07;100852.88;4225395;28;20236;-68
2023/05/05 06:15:47;;;;;;;12.80;5.13;;;;;;;17.33;33.09;100845.75;4240562;28;21895;-66
2023/05/05 06:18:13;;;;;;;10.00;4.60;;;;;;;18.05;31.96;100857.31;4229637;28;25430;-66
2023/05/05 06:20:40;;;;;;;12.67;5.00;;;;;;;18.36;31.72;100862.63;4231289;28;20231;-68
2023/05/05 06:23:07;;;;;;;11.60;5.20;;;;;;;19.31;30.49;100861.94;4235901;28;21688;-67
2023/05/05 06:25:33;;;;;;;8.97;4.67;;;;;;;19.20;29.77;100868.81;4234018;28;21095;-69
2023/05/05 06:28:00;;;;;;;9.90;5.13;;;;;;;18.59;30.70;100867.16;4233434;28;20235;-68
2023/05/05 06:30:27;;;;;;;11.00;4.77;;;;;;;19.00;29.97;100865.81;4226254;28;20423;-68
2023/05/05 06:32:54;;;;;;;11.98;5.13;;;;;;;19.53;29.04;100865.53;4227191;28;21885;-66
2023/05/05 06:35:21;;;;;;;9.83;4.63;;;;;;;20.10;28.24;100855.50;4224905;28;20240;-67
2023/05/05 06:37:47;;;;;;;12.30;5.60;;;;;;;20.60;28.14;100860.03;4242683;28;21688;-67
2023/05/05 06:40:14;;;;;;;10.63;4.80;;;;;;;21.35;27.13;100867.53;4226059;28;21936;-67
2023/05/05 06:42:41;;;;;;;15.97;5.57;;;;;;;21.29;27.02;100860.09;4224940;28;22921;-67
2023/05/05 06:45:08;;;;;;;12.30;6.17;;;;;;;22.38;25.69;100866.31;4230276;28;20377;-67
2023/05/05 06:47:35;;;;;;;16.13;5.47;;;;;;;22.83;25.35;100873.00;4229556;28;22012;-66
2023/05/05 06:50:02;;;;;;;15.57;5.60;;;;;;;22.82;25.50;100868.53;4206591;28;20237;-66
2023/05/05 06:52:29;;;;;;;9.47;4.53;;;;;;;23.16;24.59;100872.84;4225829;28;20227;-68
2023/05/05 06:54:55;;;;;;;15.30;4.85;;;;;;;23.05;24.50;100879.91;4226073;28;20313;-67
2023/05/05 06:57:22;;;;;;;17.23;4.88;;;;;;;21.80;25.89;100873.34;4235215;28;20293;-68
2023/05/05 06:59:49;;;;;;;11.03;4.47;;;;;;;22.78;25.09;100874.50;4215872;28;21607;-68
2023/05/05 07:02:15;;;;;;;13.73;4.30;;;;;;;24.45;23.71;100870.81;4237706;28;21144;-66
2023/05/05 07:04:42;;;;;;;15.40;4.95;;;;;;;25.04;22.36;100859.31;4221679;28;20295;-66
2023/05/05 07:07:09;;;;;;;16.73;4.60;;;;;;;24.38;22.87;100870.91;4222963;28;20244;-67
2023/05/05 07:09:36;;;;;;;18.98;4.68;;;;;;;24.52;22.98;100874.34;4230494;28;21680;-65
2023/05/05 07:12:02;;;;;;;10.13;4.70;;;;;;;24.94;22.98;100874.53;4227710;28;20689;-66
2023/05/05 07:14:29;;;;;;;14.60;4.50;;;;;;;25.03;22.63;100877.84;4231850;28;20287;-66
2023/05/05 07:16:56;;;;;;;10.23;4.43;;;;;;;23.87;23.95;100876.44;4221405;28;20344;-65
2023/05/05 07:19:22;;;;;;;16.50;3.78;;;;;;;24.48;23.53;100879.50;4235443;28;21254;-68
2023/05/05 07:21:49;;;;;;;13.38;4.70;;;;;;;24.33;23.40;100885.41;4209148;28;21078;-68
2023/05/05 07:24:15;;;;;;;14.03;4.33;;;;;;;23.52;25.23;100887.13;4227490;28;20255;-66
2023/05/05 07:26:42;;;;;;;11.98;4.32;;;;;;;23.77;24.46;100878.00;4211087;28;20321;-71
2023/05/05 07:29:09;;;;;;;14.03;4.63;;;;;;;24.03;24.01;100874.19;4218301;28;25912;-70
2023/05/05 07:31:36;;;;;;;11.80;4.25;;;;;;;23.59;24.20;100885.16;4239980;28;20588;-65
2023/05/05 07:34:02;;;;;;;10.50;4.07;;;;;;;22.32;25.96;100880.94;4229270;28;20396;-67
2023/05/05 07:36:29;;;;;;;13.10;4.60;;;;;;;21.88;25.84;100882.47;4235251;28;20239;-66
2023/05/05 07:38:55;;;;;;;14.05;4.68;;;;;;;22.67;25.49;100888.09;4226247;28;22372;-67
2023/05/05 07:41:22;;;;;;;14.53;4.20;;;;;;;22.16;25.65;100883.13;4229893;28;20236;-66
2023/05/05 07:43:48;;;;;;;11.90;4.07;;;;;;;21.59;26.83;100884.56;4225894;28;20384;-66
2023/05/05 07:46:15;;;;;;;17.33;5.07;;;;;;;20.39;27.45;100886.56;4226500;28;20294;-67
2023/05/05 07:48:42;;;;;;;8.60;3.93;;;;;;;19.46;28.99;100884.72;4233327;28;21077;-67
2023/05/05 07:51:09;;;;;;;12.07;3.83;;;;;;;19.77;29.59;100896.41;4260275;28;20416;-66
2023/05/05 07:53:36;;;;;;;9.23;4.47;;;;;;;19.35;30.01;100890.69;4223658;28;20231;-67
2023/05/05 07:56:02;;;;;;;18.23;4.83;;;;;;;19.67;29.71;100891.25;4232171;28;20315;-66
2023/05/05 07:58:29;;;;;;;8.13;3.87;;;;;;;19.52;28.95;100891.31;4235583;28;20424;-65
2023/05/05 08:00:56;;;;;;;10.63;3.90;;;;;;;18.94;30.42;100885.81;4230799;28;22537;-68
2023/05/05 08:03:23;;;;;;;13.43;4.60;;;;;;;19.05;29.57;100882.53;4211498;28;20533;-67
2023/05/05 08:05:53;;;;;;;10.77;4.30;;;;;;;18.09;31.80;100880.56;4251620;28;22347;-67
2023/05/05 08:08:23;;;;;;;10.57;3.83;;;;;;;18.42;31.06;100880.22;4243398;28;21203;-67
2023/05/05 08:10:51;;;;;;;9.70;4.33;;;;;;;17.60;32.62;100886.44;4233307;28;22246;-66
2023/05/05 08:13:18;;;;;;;13.67;4.60;;;;;;;17.51;33.69;100889.22;4240833;28;20643;-67
2023/05/05 08:15:46;;;;;;;13.47;4.70;;;;;;;17.82;33.62;100895.66;4243955;28;20230;-68
2023/05/05 08:18:13;;;;;;;15.47;4.20;;;;;;;18.51;32.60;100892.78;4255169;28;21920;-72
2023/05/05 08:20:40;;;;;;;14.63;4.10;;;;;;;17.86;32.19;100888.78;4242533;28;20236;-70
2023/05/05 08:23:07;;;;;;;15.77;4.50;;;;;;;17.28;33.84;100897.41;4253633;28;20234;-68
2023/05/05 08:25:34;;;;;;;13.50;4.17;;;;;;;17.78;32.79;100891.59;4263367;28;20222;-73
2023/05/05 08:28:01;;;;;;;14.53;4.63;;;;;;;17.86;33.83;100897.84;4256320;28;20242;-49
2023/05/05 08:30:28;;;;;;;10.87;4.10;;;;;;;18.00;31.88;100896.22;4229797;28;20236;-66
2023/05/05 08:32:55;;;;;;;10.27;4.10;;;;;;;18.32;31.63;100896.09;4236127;28;22152;-69
2023/05/05 08:35:22;;;;;;;6.80;3.57;;;;;;;18.19;33.53;100891.25;4270597;28;23010;-66
2023/05/05 08:37:49;;;;;;;9.30;3.93;;;;;;;17.86;32.53;100892.38;4255560;28;20226;-68
2023/05/05 08:40:17;;;;;;;8.43;3.90;;;;;;;17.68;33.40;100889.97;4236439;28;22812;-67
2023/05/05 08:42:45;;;;;;;11.37;3.90;;;;;;;17.48;33.23;100891.47;4233757;28;21257;-67
2023/05/05 08:45:11;;;;;;;11.47;4.10;;;;;;;17.82;32.94;100892.91;4237541;28;20230;-70
2023/05/05 08:47:38;;;;;;;10.97;3.87;;;;;;;18.52;32.06;100890.91;4241283;28;20408;-65
2023/05/05 08:50:09;;;;;;;12.33;3.87;;;;;;;17.99;32.63;100891.78;4226489;28;20634;-70
2023/05/05 08:52:40;;;;;;;9.87;3.47;;;;;;;17.84;32.50;100897.19;4239683;28;20234;-70
2023/05/05 08:55:14;;;;;;;11.50;4.07;;;;;;;17.63;32.96;100900.63;4233928;28;21180;-68
2023/05/05 08:57:47;;;;;;;11.87;3.80;;;;;;;17.64;33.75;100896.81;4219696;28;20409;-67
2023/05/05 09:00:17;;;;;;;22.43;3.80;;;;;;;17.49;33.78;100893.16;4226369;28;21486;-67
2023/05/05 09:02:45;;;;;;;6.77;3.20;;;;;;;17.13;33.45;100902.81;4236616;28;21419;-67
2023/05/05 09:05:12;;;;;;;12.77;3.67;;;;;;;16.61;33.95;100905.06;4215154;28;20390;-68
2023/05/05 09:07:42;;;;;;;10.17;3.53;;;;;;;16.62;34.30;100905.91;4240650;28;25692;-65
2023/05/05 09:10:10;;;;;;;6.70;3.27;;;;;;;16.87;33.70;100903.06;4232409;28;20481;-66
2023/05/05 09:12:41;;;;;;;8.80;3.50;;;;;;;16.83;35.05;100899.84;4217857;28;20235;-67
2023/05/05 09:15:10;;;;;;;9.37;3.70;;;;;;;17.16;34.21;100890.66;4263521;28;22877;-66
2023/05/05 09:17:37;;;;;;;15.60;3.10;;;;;;;17.23;33.68;100905.31;4223148;28;20261;-70
2023/05/05 09:20:08;;;;;;;9.80;3.70;;;;;;;17.06;34.70;100899.94;4232177;28;23005;-57
2023/05/05 09:22:37;;;;;;;13.20;3.47;;;;;;;17.13;35.39;100897.34;4229747;28;20432;-70
2023/05/05 09:25:06;;;;;;;9.83;3.10;;;;;;;17.50;34.06;100892.13;4239881;28;20875;-65
2023/05/05 09:27:37;;;;;;;12.70;3.77;;;;;;;17.04;35.07;100896.50;4234348;28;20299;-64
2023/05/05 09:30:07;;;;;;;16.63;3.77;;;;;;;16.92;36.11;100897.91;4240999;28;20239;-66
2023/05/05 09:32:42;;;;;;;8.20;3.33;;;;;;;16.79;36.67;100899.34;4238477;28;20348;-64
2023/05/05 09:35:09;;;;;;;11.67;3.33;;;;;;;16.77;35.81;100897.78;4243997;28;20242;-66
2023/05/05 09:37:37;;;;;;;11.53;3.10;;;;;;;16.69;36.39;100906.91;4235557;28;20931;-71
2023/05/05 09:40:05;;;;;;;6.70;2.97;;;;;;;16.44;36.28;100896.03;4246953;28;20828;-65
2023/05/05 09:42:32;;;;;;;6.27;3.23;;;;;;;16.51;36.65;100889.84;4243665;28;20372;-66
2023/05/05 09:44:58;;;;;;;11.10;3.75;;;;;;;16.87;36.22;100897.59;4244573;28;20416;-66
2023/05/05 09:47:35;;;;;;;10.93;3.50;;;;;;;16.99;35.63;100900.84;4232062;28;20684;-66
2023/05/05 09:50:03;;;;;;;9.03;3.07;;;;;;;16.81;34.92;100899.16;4221708;28;22205;-66
2023/05/05 09:52:30;;;;;;;13.00;4.00;;;;;;;17.12;35.49;100903.84;4250693;28;20290;-66
2023/05/05 09:54:57;;;;;;;8.23;2.97;;;;;;;17.13;36.08;100899.22;4244684;28;20589;-67
2023/05/05 09:57:26;;;;;;;11.67;3.10;;;;;;;17.11;35.05;100899.41;4218708;28;21996;-65
2023/05/05 10:00:00;;;;;;;12.23;3.20;;;;;;;17.03;36.62;100892.06;4253523;28;22150;-67
2023/05/05 10:02:34;;;;;;;13.33;3.00;;;;;;;16.71;37.82;100898.50;4252219;28;20247;-65
2023/05/05 10:05:15;;;;;;;7.57;3.10;;;;;;;16.48;38.85;100905.59;4236653;28;20300;-66
2023/05/05 10:07:43;;;;;;;8.10;2.93;;;;;;;16.61;38.61;100895.97;4255148;28;21438;-72
2023/05/05 10:10:15;;;;;;;11.53;2.60;;;;;;;16.57;38.02;100892.75;4241926;28;20243;-62
2023/05/05 10:12:42;;;;;;;20.63;3.67;;;;;;;16.14;39.33;100876.63;4260053;28;20332;-67
2023/05/05 10:15:10;;;;;;;6.30;3.00;;;;;;;16.19;38.76;100899.84;4224588;28;20262;-67
2023/05/05 10:17:48;;;;;;;12.37;3.03;;;;;;;16.05;39.50;100896.78;4229646;28;20688;-61
2023/05/05 10:20:18;;;;;;;9.23;2.90;;;;;;;16.23;39.92;100902.06;4245445;28;20258;-64
2023/05/05 10:22:53;;;;;;;11.40;3.13;;;;;;;16.42;39.26;100906.31;4237678;28;25493;-65
2023/05/05 10:25:28;;;;;;;5.97;2.07;;;;;;;16.49;38.97;100909.16;4225939;28;20232;-65
2023/05/05 10:27:58;;;;;;;7.73;2.80;;;;;;;16.12;38.78;100888.75;4219154;28;20243;-64
2023/05/05 10:30:28;;;;;;;5.30;2.80;;;;;;;15.60;40.16;100912.63;4238843;28;20231;-62
2023/05/05 10:33:06;;;;;;;8.77;2.33;;;;;;;15.64;40.72;100902.22;4231552;28;24941;-62
2023/05/05 10:35:56;;;;;;;10.53;2.60;;;;;;;15.79;41.06;100888.72;4220163;28;20239;-64
2023/05/05 10:38:24;;;;;;;6.27;2.47;;;;;;;16.06;40.19;100890.28;4228635;28;25507;-63
2023/05/05 10:40:53;;;;;;;8.60;2.67;;;;;;;16.46;39.55;100902.19;4222634;28;22850;-66
2023/05/05 10:43:19;;;;;;;6.73;2.37;;;;;;;16.68;39.28;100896.16;4207407;28;20284;-64
2023/05/05 10:45:46;;;;;;;10.10;2.53;;;;;;;16.46;38.94;100901.34;4258842;28;20639;-65
2023/05/05 10:48:20;;;;;;;11.77;2.20;;;;;;;16.37;39.52;100900.50;4257805;28;20597;-67
2023/05/05 10:50:50;;;;;;;8.50;2.30;;;;;;;16.43;39.31;100899.78;4229458;28;20231;-65
2023/05/05 10:53:18;;;;;;;6.10;2.47;;;;;;;16.61;39.50;100902.31;4240552;28;21716;-62
2023/05/05 10:56:11;;;;;;;10.25;2.90;;;;;;;16.70;39.78;100894.94;4267088;28;20395;-69
2023/05/05 10:58:40;;;;;;;10.47;2.60;;;;;;;17.01;40.08;100887.81;4246863;28;20234;-65
2023/05/05 11:01:32;;;;;;;11.00;2.63;;;;;;;17.00;40.22;100895.19;4250995;28;20247;-53
2023/05/05 11:04:22;;;;;;;10.17;2.70;;;;;;;17.26;39.84;100894.00;4248930;28;22203;-67
2023/05/05 11:07:07;;;;;;;8.70;2.37;;;;;;;17.02;40.19;100897.72;4261515;28;20780;-66
2023/05/05 11:09:53;;;;;;;9.83;2.60;;;;;;;16.45;40.86;100881.34;4226100;28;20228;-68
2023/05/05 11:12:20;;;;;;;7.07;3.00;;;;;;;15.87;41.56;100891.50;4266210;28;20752;-67
2023/05/05 11:14:46;;;;;;;11.90;2.83;;;;;;;15.82;42.74;100878.31;4239716;28;20227;-68
2023/05/05 11:17:48;;;;;;;13.17;2.67;;;;;;;16.05;41.57;100885.84;4239536;28;20243;-67
2023/05/05 11:20:14;;;;;;;10.07;2.37;;;;;;;15.94;41.81;100886.22;4280117;28;20264;-66
2023/05/05 11:23:03;;;;;;;10.70;2.63;;;;;;;16.15;41.72;100892.00;4253027;28;23852;-65
2023/05/05 11:25:33;;;;;;;8.27;2.43;;;;;;;16.08;41.44;100888.25;4233766;28;20234;-65
2023/05/05 11:28:13;;;;;;;9.90;2.00;;;;;;;16.35;41.49;100890.75;4248372;28;22386;-64
2023/05/05 11:30:55;;;;;;;8.17;2.40;;;;;;;15.98;41.80;100893.91;4250270;28;20231;-65